sensor_id;sensor_type;location;lat;lon;timestamp;temperature;humidity
44982;DHT22;30716;41.740;-70.400;2023-03-23T00:01:13;24.20;36.80
44982;DHT22;30716;41.740;-70.400;2023-03-23T00:03:40;24.20;37.00
44982;DHT22;30716;41.740;-70.400;2023-03-23T00:06:07;24.20;36.90
44982;DHT22;30716;41.740;-70.400;2023-03-23T00:08:36;24.20;36.90
44982;DHT22;30716;41.740;-70.400;2023-03-23T00:11:13;24.20;36.90
44982;DHT22;30716;41.740;-70.400;2023-03-23T00:13:45;24.20;36.90
44982;DHT22;30716;41.740;-70.400;2023-03-23T00:16:12;24.20;37.00
44982;DHT22;30716;41.740;-70.400;2023-03-23T00:18:50;24.20;36.90
44982;DHT22;30716;41.740;-70.400;2023-03-23T00:21:21;24.20;36.90
44982;DHT22;30716;41.740;-70.400;2023-03-23T00:23:51;24.20;36.80
44982;DHT22;30716;41.740;-70.400;2023-03-23T00:26:18;24.20;36.70
44982;DHT22;30716;41.740;-70.400;2023-03-23T00:28:44;24.20;36.80
44982;DHT22;30716;41.740;-70.400;2023-03-23T00:31:12;24.20;36.90
44982;DHT22;30716;41.740;-70.400;2023-03-23T00:33:40;24.20;36.90
44982;DHT22;30716;41.740;-70.400;2023-03-23T00:36:10;24.20;36.90
44982;DHT22;30716;41.740;-70.400;2023-03-23T00:38:37;24.20;36.90
44982;DHT22;30716;41.740;-70.400;2023-03-23T00:41:05;24.20;36.90
44982;DHT22;30716;41.740;-70.400;2023-03-23T00:43:32;24.20;37.00
44982;DHT22;30716;41.740;-70.400;2023-03-23T00:46:03;24.20;36.90
44982;DHT22;30716;41.740;-70.400;2023-03-23T00:48:35;24.20;37.20
44982;DHT22;30716;41.740;-70.400;2023-03-23T00:51:02;24.20;37.30
44982;DHT22;30716;41.740;-70.400;2023-03-23T00:53:39;24.20;37.70
44982;DHT22;30716;41.740;-70.400;2023-03-23T00:56:07;24.20;37.00
44982;DHT22;30716;41.740;-70.400;2023-03-23T00:58:34;24.20;37.00
44982;DHT22;30716;41.740;-70.400;2023-03-23T01:01:04;24.20;37.10
44982;DHT22;30716;41.740;-70.400;2023-03-23T01:03:31;24.20;38.10
44982;DHT22;30716;41.740;-70.400;2023-03-23T01:06:11;24.20;37.00
44982;DHT22;30716;41.740;-70.400;2023-03-23T01:08:41;24.20;37.30
44982;DHT22;30716;41.740;-70.400;2023-03-23T01:11:15;24.20;37.00
44982;DHT22;30716;41.740;-70.400;2023-03-23T01:13:43;24.20;37.30
44982;DHT22;30716;41.740;-70.400;2023-03-23T01:16:10;24.20;37.10
44982;DHT22;30716;41.740;-70.400;2023-03-23T01:18:37;24.20;37.20
44982;DHT22;30716;41.740;-70.400;2023-03-23T01:21:15;24.20;37.10
44982;DHT22;30716;41.740;-70.400;2023-03-23T01:23:42;24.20;36.90
44982;DHT22;30716;41.740;-70.400;2023-03-23T01:26:23;24.20;36.80
44982;DHT22;30716;41.740;-70.400;2023-03-23T01:28:50;24.20;36.90
44982;DHT22;30716;41.740;-70.400;2023-03-23T01:31:27;24.20;36.80
44982;DHT22;30716;41.740;-70.400;2023-03-23T01:33:55;24.20;37.00
44982;DHT22;30716;41.740;-70.400;2023-03-23T01:36:25;24.20;37.00
44982;DHT22;30716;41.740;-70.400;2023-03-23T01:38:59;24.20;36.90
44982;DHT22;30716;41.740;-70.400;2023-03-23T01:41:29;24.20;36.80
44982;DHT22;30716;41.740;-70.400;2023-03-23T01:46:28;24.20;36.90
44982;DHT22;30716;41.740;-70.400;2023-03-23T01:48:59;24.30;37.00
44982;DHT22;30716;41.740;-70.400;2023-03-23T01:51:32;24.20;36.70
44982;DHT22;30716;41.740;-70.400;2023-03-23T01:54:03;24.30;37.10
44982;DHT22;30716;41.740;-70.400;2023-03-23T01:56:36;24.20;36.70
44982;DHT22;30716;41.740;-70.400;2023-03-23T01:59:08;24.20;36.80
44982;DHT22;30716;41.740;-70.400;2023-03-23T02:01:35;24.20;37.00
44982;DHT22;30716;41.740;-70.400;2023-03-23T02:04:05;24.30;37.10
44982;DHT22;30716;41.740;-70.400;2023-03-23T02:06:33;24.30;36.80
44982;DHT22;30716;41.740;-70.400;2023-03-23T02:08:59;24.30;36.70
44982;DHT22;30716;41.740;-70.400;2023-03-23T02:11:26;24.20;36.70
44982;DHT22;30716;41.740;-70.400;2023-03-23T02:13:52;24.30;36.90
44982;DHT22;30716;41.740;-70.400;2023-03-23T02:24:53;24.30;36.70
44982;DHT22;30716;41.740;-70.400;2023-03-23T02:41:27;24.30;36.40
44982;DHT22;30716;41.740;-70.400;2023-03-23T02:43:55;24.40;36.60
44982;DHT22;30716;41.740;-70.400;2023-03-23T02:46:22;24.40;36.60
44982;DHT22;30716;41.740;-70.400;2023-03-23T02:48:50;24.40;36.70
44982;DHT22;30716;41.740;-70.400;2023-03-23T02:51:20;24.40;36.70
44982;DHT22;30716;41.740;-70.400;2023-03-23T02:53:50;24.40;36.90
44982;DHT22;30716;41.740;-70.400;2023-03-23T02:56:19;24.40;36.80
44982;DHT22;30716;41.740;-70.400;2023-03-23T02:58:47;24.40;36.80
44982;DHT22;30716;41.740;-70.400;2023-03-23T03:03:56;24.40;36.90
44982;DHT22;30716;41.740;-70.400;2023-03-23T03:06:51;24.40;37.00
44982;DHT22;30716;41.740;-70.400;2023-03-23T03:09:41;24.40;36.90
44982;DHT22;30716;41.740;-70.400;2023-03-23T03:12:15;24.40;37.00
44982;DHT22;30716;41.740;-70.400;2023-03-23T03:14:54;24.40;37.40
44982;DHT22;30716;41.740;-70.400;2023-03-23T03:17:26;24.40;37.00
44982;DHT22;30716;41.740;-70.400;2023-03-23T03:19:57;24.40;37.70
44982;DHT22;30716;41.740;-70.400;2023-03-23T03:22:26;24.40;36.90
44982;DHT22;30716;41.740;-70.400;2023-03-23T03:24:58;24.40;36.90
44982;DHT22;30716;41.740;-70.400;2023-03-23T03:27:26;24.40;37.10
44982;DHT22;30716;41.740;-70.400;2023-03-23T03:29:56;24.40;36.90
44982;DHT22;30716;41.740;-70.400;2023-03-23T03:32:41;24.40;36.80
44982;DHT22;30716;41.740;-70.400;2023-03-23T03:35:08;24.40;36.80
44982;DHT22;30716;41.740;-70.400;2023-03-23T03:37:36;24.40;37.00
44982;DHT22;30716;41.740;-70.400;2023-03-23T03:40:09;24.40;36.70
44982;DHT22;30716;41.740;-70.400;2023-03-23T03:42:40;24.40;36.80
44982;DHT22;30716;41.740;-70.400;2023-03-23T03:45:09;24.40;36.80
44982;DHT22;30716;41.740;-70.400;2023-03-23T03:47:39;24.40;36.90
44982;DHT22;30716;41.740;-70.400;2023-03-23T03:50:06;24.40;36.90
44982;DHT22;30716;41.740;-70.400;2023-03-23T03:52:33;24.40;36.90
44982;DHT22;30716;41.740;-70.400;2023-03-23T03:55:00;24.40;36.70
44982;DHT22;30716;41.740;-70.400;2023-03-23T03:57:26;24.40;36.80
44982;DHT22;30716;41.740;-70.400;2023-03-23T03:59:53;24.40;36.70
44982;DHT22;30716;41.740;-70.400;2023-03-23T04:02:19;24.40;36.70
44982;DHT22;30716;41.740;-70.400;2023-03-23T04:04:47;24.40;36.70
44982;DHT22;30716;41.740;-70.400;2023-03-23T04:07:14;24.50;36.70
44982;DHT22;30716;41.740;-70.400;2023-03-23T04:09:45;24.50;36.70
44982;DHT22;30716;41.740;-70.400;2023-03-23T04:12:14;24.50;36.80
44982;DHT22;30716;41.740;-70.400;2023-03-23T04:14:40;24.50;36.70
44982;DHT22;30716;41.740;-70.400;2023-03-23T04:17:07;24.40;36.70
44982;DHT22;30716;41.740;-70.400;2023-03-23T04:19:37;24.50;36.80
44982;DHT22;30716;41.740;-70.400;2023-03-23T04:22:04;24.50;36.90
44982;DHT22;30716;41.740;-70.400;2023-03-23T04:24:31;24.50;36.80
44982;DHT22;30716;41.740;-70.400;2023-03-23T04:26:59;24.50;36.70
44982;DHT22;30716;41.740;-70.400;2023-03-23T04:29:26;24.50;36.70
44982;DHT22;30716;41.740;-70.400;2023-03-23T04:31:52;24.50;36.70
44982;DHT22;30716;41.740;-70.400;2023-03-23T04:34:22;24.50;36.80
44982;DHT22;30716;41.740;-70.400;2023-03-23T04:36:49;24.50;36.70
44982;DHT22;30716;41.740;-70.400;2023-03-23T04:39:16;24.50;36.80
44982;DHT22;30716;41.740;-70.400;2023-03-23T04:41:43;24.50;36.60
44982;DHT22;30716;41.740;-70.400;2023-03-23T04:44:10;24.50;36.50
44982;DHT22;30716;41.740;-70.400;2023-03-23T04:46:36;24.50;36.70
44982;DHT22;30716;41.740;-70.400;2023-03-23T04:49:02;24.60;36.80
44982;DHT22;30716;41.740;-70.400;2023-03-23T04:51:29;24.50;36.80
44982;DHT22;30716;41.740;-70.400;2023-03-23T04:53:58;24.50;36.80
44982;DHT22;30716;41.740;-70.400;2023-03-23T04:56:24;24.50;36.70
44982;DHT22;30716;41.740;-70.400;2023-03-23T04:58:51;24.50;36.60
44982;DHT22;30716;41.740;-70.400;2023-03-23T05:01:17;24.50;36.80
44982;DHT22;30716;41.740;-70.400;2023-03-23T05:03:44;24.50;36.70
44982;DHT22;30716;41.740;-70.400;2023-03-23T05:06:11;24.60;36.90
44982;DHT22;30716;41.740;-70.400;2023-03-23T05:08:37;24.60;37.00
44982;DHT22;30716;41.740;-70.400;2023-03-23T05:11:07;24.60;37.00
44982;DHT22;30716;41.740;-70.400;2023-03-23T05:13:34;24.60;36.90
44982;DHT22;30716;41.740;-70.400;2023-03-23T05:16:05;24.60;36.90
44982;DHT22;30716;41.740;-70.400;2023-03-23T05:18:31;24.60;36.80
44982;DHT22;30716;41.740;-70.400;2023-03-23T05:21:02;24.60;36.90
44982;DHT22;30716;41.740;-70.400;2023-03-23T05:23:29;24.60;36.90
44982;DHT22;30716;41.740;-70.400;2023-03-23T05:25:59;24.60;37.00
44982;DHT22;30716;41.740;-70.400;2023-03-23T05:28:28;24.60;37.00
44982;DHT22;30716;41.740;-70.400;2023-03-23T05:30:56;24.60;36.90
44982;DHT22;30716;41.740;-70.400;2023-03-23T05:33:23;24.60;36.80
44982;DHT22;30716;41.740;-70.400;2023-03-23T05:35:49;24.60;37.00
44982;DHT22;30716;41.740;-70.400;2023-03-23T05:38:16;24.60;36.90
44982;DHT22;30716;41.740;-70.400;2023-03-23T05:40:43;24.60;36.90
44982;DHT22;30716;41.740;-70.400;2023-03-23T05:43:10;24.60;37.00
44982;DHT22;30716;41.740;-70.400;2023-03-23T05:45:37;24.60;36.90
44982;DHT22;30716;41.740;-70.400;2023-03-23T05:48:04;24.60;37.00
44982;DHT22;30716;41.740;-70.400;2023-03-23T05:50:31;24.60;36.90
44982;DHT22;30716;41.740;-70.400;2023-03-23T05:52:57;24.60;36.90
44982;DHT22;30716;41.740;-70.400;2023-03-23T05:55:23;24.60;36.90
44982;DHT22;30716;41.740;-70.400;2023-03-23T05:57:50;24.60;36.90
44982;DHT22;30716;41.740;-70.400;2023-03-23T06:00:17;24.60;37.10
44982;DHT22;30716;41.740;-70.400;2023-03-23T06:02:49;24.60;37.00
44982;DHT22;30716;41.740;-70.400;2023-03-23T06:05:17;24.60;36.90
44982;DHT22;30716;41.740;-70.400;2023-03-23T06:07:43;24.70;36.90
44982;DHT22;30716;41.740;-70.400;2023-03-23T06:10:09;24.60;37.00
44982;DHT22;30716;41.740;-70.400;2023-03-23T06:12:37;24.60;37.00
44982;DHT22;30716;41.740;-70.400;2023-03-23T06:15:05;24.60;37.00
44982;DHT22;30716;41.740;-70.400;2023-03-23T06:17:33;24.60;36.90
44982;DHT22;30716;41.740;-70.400;2023-03-23T06:20:00;24.60;37.00
44982;DHT22;30716;41.740;-70.400;2023-03-23T06:22:26;24.60;36.90
44982;DHT22;30716;41.740;-70.400;2023-03-23T06:24:52;24.70;37.10
44982;DHT22;30716;41.740;-70.400;2023-03-23T06:27:19;24.60;37.00
44982;DHT22;30716;41.740;-70.400;2023-03-23T06:29:46;24.60;37.00
44982;DHT22;30716;41.740;-70.400;2023-03-23T06:32:13;24.60;37.10
44982;DHT22;30716;41.740;-70.400;2023-03-23T06:34:39;24.60;37.10
44982;DHT22;30716;41.740;-70.400;2023-03-23T06:37:09;24.60;37.00
44982;DHT22;30716;41.740;-70.400;2023-03-23T06:40:08;24.60;37.70
44982;DHT22;30716;41.740;-70.400;2023-03-23T06:42:38;24.60;37.00
44982;DHT22;30716;41.740;-70.400;2023-03-23T06:45:05;24.60;37.20
44982;DHT22;30716;41.740;-70.400;2023-03-23T06:47:32;24.60;37.20
44982;DHT22;30716;41.740;-70.400;2023-03-23T06:49:58;24.60;37.30
44982;DHT22;30716;41.740;-70.400;2023-03-23T06:52:25;24.60;37.20
44982;DHT22;30716;41.740;-70.400;2023-03-23T06:54:52;24.60;37.20
44982;DHT22;30716;41.740;-70.400;2023-03-23T06:57:19;24.60;37.20
44982;DHT22;30716;41.740;-70.400;2023-03-23T06:59:46;24.60;37.40
44982;DHT22;30716;41.740;-70.400;2023-03-23T07:02:14;24.60;37.30
44982;DHT22;30716;41.740;-70.400;2023-03-23T07:04:40;24.60;37.30
44982;DHT22;30716;41.740;-70.400;2023-03-23T07:07:11;24.60;37.30
44982;DHT22;30716;41.740;-70.400;2023-03-23T07:09:40;24.60;37.40
44982;DHT22;30716;41.740;-70.400;2023-03-23T07:12:08;24.60;37.30
44982;DHT22;30716;41.740;-70.400;2023-03-23T07:14:35;24.50;37.20
44982;DHT22;30716;41.740;-70.400;2023-03-23T07:17:03;24.60;37.30
44982;DHT22;30716;41.740;-70.400;2023-03-23T07:19:30;24.60;37.30
44982;DHT22;30716;41.740;-70.400;2023-03-23T07:21:56;24.60;37.30
44982;DHT22;30716;41.740;-70.400;2023-03-23T07:24:23;24.50;37.20
44982;DHT22;30716;41.740;-70.400;2023-03-23T07:26:49;24.50;37.30
44982;DHT22;30716;41.740;-70.400;2023-03-23T07:29:16;24.50;37.60
44982;DHT22;30716;41.740;-70.400;2023-03-23T07:31:43;24.50;37.10
44982;DHT22;30716;41.740;-70.400;2023-03-23T07:34:09;24.50;37.10
44982;DHT22;30716;41.740;-70.400;2023-03-23T07:36:35;24.50;37.20
44982;DHT22;30716;41.740;-70.400;2023-03-23T07:39:04;24.50;37.20
44982;DHT22;30716;41.740;-70.400;2023-03-23T07:41:34;24.50;37.10
44982;DHT22;30716;41.740;-70.400;2023-03-23T07:44:01;24.50;37.20
44982;DHT22;30716;41.740;-70.400;2023-03-23T07:46:27;24.60;37.20
44982;DHT22;30716;41.740;-70.400;2023-03-23T07:48:54;24.60;37.30
44982;DHT22;30716;41.740;-70.400;2023-03-23T07:51:20;24.50;37.10
44982;DHT22;30716;41.740;-70.400;2023-03-23T07:53:47;24.60;37.40
44982;DHT22;30716;41.740;-70.400;2023-03-23T07:56:14;24.60;37.50
44982;DHT22;30716;41.740;-70.400;2023-03-23T07:58:45;24.50;37.90
44982;DHT22;30716;41.740;-70.400;2023-03-23T08:01:12;24.50;37.30
44982;DHT22;30716;41.740;-70.400;2023-03-23T08:03:38;24.50;37.40
44982;DHT22;30716;41.740;-70.400;2023-03-23T08:06:06;24.60;37.80
44982;DHT22;30716;41.740;-70.400;2023-03-23T08:08:35;24.60;37.60
44982;DHT22;30716;41.740;-70.400;2023-03-23T08:11:03;24.60;37.20
44982;DHT22;30716;41.740;-70.400;2023-03-23T08:13:30;24.60;37.20
44982;DHT22;30716;41.740;-70.400;2023-03-23T08:15:56;24.60;37.30
44982;DHT22;30716;41.740;-70.400;2023-03-23T08:18:23;24.60;37.30
44982;DHT22;30716;41.740;-70.400;2023-03-23T08:20:51;24.60;37.90
44982;DHT22;30716;41.740;-70.400;2023-03-23T08:23:19;24.60;37.30
44982;DHT22;30716;41.740;-70.400;2023-03-23T08:25:48;24.60;37.20
44982;DHT22;30716;41.740;-70.400;2023-03-23T08:28:15;24.70;37.30
44982;DHT22;30716;41.740;-70.400;2023-03-23T08:30:42;24.70;37.30
44982;DHT22;30716;41.740;-70.400;2023-03-23T08:33:08;24.60;37.10
44982;DHT22;30716;41.740;-70.400;2023-03-23T08:35:36;24.70;37.30
44982;DHT22;30716;41.740;-70.400;2023-03-23T08:38:03;24.70;37.20
44982;DHT22;30716;41.740;-70.400;2023-03-23T08:40:30;24.70;37.20
44982;DHT22;30716;41.740;-70.400;2023-03-23T08:42:57;24.70;37.30
44982;DHT22;30716;41.740;-70.400;2023-03-23T08:45:24;24.80;37.20
44982;DHT22;30716;41.740;-70.400;2023-03-23T08:47:52;24.70;37.20
44982;DHT22;30716;41.740;-70.400;2023-03-23T08:50:24;24.80;37.20
44982;DHT22;30716;41.740;-70.400;2023-03-23T08:52:52;24.80;37.10
44982;DHT22;30716;41.740;-70.400;2023-03-23T08:55:21;24.80;37.20
44982;DHT22;30716;41.740;-70.400;2023-03-23T08:57:47;24.80;37.10
44982;DHT22;30716;41.740;-70.400;2023-03-23T09:00:17;24.80;37.20
44982;DHT22;30716;41.740;-70.400;2023-03-23T09:02:50;24.80;37.20
44982;DHT22;30716;41.740;-70.400;2023-03-23T09:05:20;24.80;37.20
44982;DHT22;30716;41.740;-70.400;2023-03-23T09:07:49;24.80;37.30
44982;DHT22;30716;41.740;-70.400;2023-03-23T09:10:17;24.80;37.20
44982;DHT22;30716;41.740;-70.400;2023-03-23T09:12:44;24.80;37.30
44982;DHT22;30716;41.740;-70.400;2023-03-23T09:15:14;24.80;37.20
44982;DHT22;30716;41.740;-70.400;2023-03-23T09:17:44;24.80;37.30
44982;DHT22;30716;41.740;-70.400;2023-03-23T09:20:13;24.80;37.30
44982;DHT22;30716;41.740;-70.400;2023-03-23T09:22:41;24.80;37.20
44982;DHT22;30716;41.740;-70.400;2023-03-23T09:25:09;24.80;37.20
44982;DHT22;30716;41.740;-70.400;2023-03-23T09:27:37;24.80;37.30
44982;DHT22;30716;41.740;-70.400;2023-03-23T09:30:06;24.80;37.20
44982;DHT22;30716;41.740;-70.400;2023-03-23T09:32:34;24.80;37.20
44982;DHT22;30716;41.740;-70.400;2023-03-23T09:35:02;24.80;37.20
44982;DHT22;30716;41.740;-70.400;2023-03-23T09:37:29;24.80;37.20
44982;DHT22;30716;41.740;-70.400;2023-03-23T09:39:56;24.80;37.30
44982;DHT22;30716;41.740;-70.400;2023-03-23T09:48:00;24.80;37.10
44982;DHT22;30716;41.740;-70.400;2023-03-23T09:50:31;24.90;37.30
44982;DHT22;30716;41.740;-70.400;2023-03-23T09:53:09;24.80;37.10
44982;DHT22;30716;41.740;-70.400;2023-03-23T09:55:37;24.80;37.00
44982;DHT22;30716;41.740;-70.400;2023-03-23T09:58:26;24.90;37.20
44982;DHT22;30716;41.740;-70.400;2023-03-23T10:03:42;24.80;37.00
44982;DHT22;30716;41.740;-70.400;2023-03-23T10:06:11;24.80;37.20
44982;DHT22;30716;41.740;-70.400;2023-03-23T10:08:47;24.80;37.40
44982;DHT22;30716;41.740;-70.400;2023-03-23T10:19:57;24.80;37.20
44982;DHT22;30716;41.740;-70.400;2023-03-23T10:22:32;24.80;37.30
44982;DHT22;30716;41.740;-70.400;2023-03-23T10:27:48;24.80;37.30
44982;DHT22;30716;41.740;-70.400;2023-03-23T10:32:54;24.80;37.20
44982;DHT22;30716;41.740;-70.400;2023-03-23T10:35:32;24.80;37.30
44982;DHT22;30716;41.740;-70.400;2023-03-23T10:38:04;24.80;37.40
44982;DHT22;30716;41.740;-70.400;2023-03-23T10:40:31;24.80;37.30
44982;DHT22;30716;41.740;-70.400;2023-03-23T10:43:02;24.80;37.40
44982;DHT22;30716;41.740;-70.400;2023-03-23T10:45:30;24.80;37.40
44982;DHT22;30716;41.740;-70.400;2023-03-23T10:48:13;24.80;37.20
44982;DHT22;30716;41.740;-70.400;2023-03-23T10:50:42;24.80;37.40
44982;DHT22;30716;41.740;-70.400;2023-03-23T10:53:23;24.80;37.40
44982;DHT22;30716;41.740;-70.400;2023-03-23T10:55:52;24.70;37.20
44982;DHT22;30716;41.740;-70.400;2023-03-23T10:58:32;24.70;37.40
44982;DHT22;30716;41.740;-70.400;2023-03-23T11:01:02;24.70;37.40
44982;DHT22;30716;41.740;-70.400;2023-03-23T11:06:08;24.70;37.40
44982;DHT22;30716;41.740;-70.400;2023-03-23T11:08:52;24.70;37.40
44982;DHT22;30716;41.740;-70.400;2023-03-23T11:11:37;24.70;37.40
44982;DHT22;30716;41.740;-70.400;2023-03-23T11:14:19;24.70;37.40
44982;DHT22;30716;41.740;-70.400;2023-03-23T11:16:54;24.70;37.50
44982;DHT22;30716;41.740;-70.400;2023-03-23T11:19:24;24.60;37.30
44982;DHT22;30716;41.740;-70.400;2023-03-23T11:21:53;24.70;37.30
44982;DHT22;30716;41.740;-70.400;2023-03-23T11:24:25;24.70;37.50
44982;DHT22;30716;41.740;-70.400;2023-03-23T11:26:52;24.70;37.50
44982;DHT22;30716;41.740;-70.400;2023-03-23T11:29:25;24.70;37.40
44982;DHT22;30716;41.740;-70.400;2023-03-23T11:32:05;24.70;37.50
44982;DHT22;30716;41.740;-70.400;2023-03-23T11:34:39;24.70;37.60
44982;DHT22;30716;41.740;-70.400;2023-03-23T11:37:45;24.70;37.30
44982;DHT22;30716;41.740;-70.400;2023-03-23T11:40:22;24.80;37.50
44982;DHT22;30716;41.740;-70.400;2023-03-23T11:45:36;24.80;37.30
44982;DHT22;30716;41.740;-70.400;2023-03-23T11:48:19;24.80;37.30
44982;DHT22;30716;41.740;-70.400;2023-03-23T11:53:32;24.80;37.30
44982;DHT22;30716;41.740;-70.400;2023-03-23T11:58:36;24.80;37.30
44982;DHT22;30716;41.740;-70.400;2023-03-23T12:01:11;24.80;38.10
44982;DHT22;30716;41.740;-70.400;2023-03-23T12:06:26;24.80;37.30
44982;DHT22;30716;41.740;-70.400;2023-03-23T12:14:43;24.80;37.20
44982;DHT22;30716;41.740;-70.400;2023-03-23T12:20:36;24.80;37.20
44982;DHT22;30716;41.740;-70.400;2023-03-23T12:23:18;24.80;37.20
44982;DHT22;30716;41.740;-70.400;2023-03-23T12:26:03;24.80;37.20
44982;DHT22;30716;41.740;-70.400;2023-03-23T12:31:55;24.80;37.20
44982;DHT22;30716;41.740;-70.400;2023-03-23T12:39:54;24.80;37.20
44982;DHT22;30716;41.740;-70.400;2023-03-23T12:48:02;24.80;37.20
44982;DHT22;30716;41.740;-70.400;2023-03-23T12:51:38;24.80;37.20
44982;DHT22;30716;41.740;-70.400;2023-03-23T12:53:58;24.80;37.20
44982;DHT22;30716;41.740;-70.400;2023-03-23T12:59:38;24.80;37.20
44982;DHT22;30716;41.740;-70.400;2023-03-23T13:02:32;24.80;37.20
44982;DHT22;30716;41.740;-70.400;2023-03-23T13:05:33;24.80;37.30
44982;DHT22;30716;41.740;-70.400;2023-03-23T13:08:29;24.80;37.20
44982;DHT22;30716;41.740;-70.400;2023-03-23T13:11:04;24.80;37.30
44982;DHT22;30716;41.740;-70.400;2023-03-23T13:13:52;24.80;37.20
44982;DHT22;30716;41.740;-70.400;2023-03-23T13:21:51;24.80;37.30
44982;DHT22;30716;41.740;-70.400;2023-03-23T13:24:22;24.80;37.30
44982;DHT22;30716;41.740;-70.400;2023-03-23T13:26:50;24.80;37.20
44982;DHT22;30716;41.740;-70.400;2023-03-23T13:29:21;24.80;37.20
44982;DHT22;30716;41.740;-70.400;2023-03-23T13:32:50;24.80;37.20
44982;DHT22;30716;41.740;-70.400;2023-03-23T13:34:52;24.90;37.20
44982;DHT22;30716;41.740;-70.400;2023-03-23T13:39:54;24.80;37.30
44982;DHT22;30716;41.740;-70.400;2023-03-23T13:42:29;24.80;37.10
44982;DHT22;30716;41.740;-70.400;2023-03-23T13:48:23;24.80;37.30
44982;DHT22;30716;41.740;-70.400;2023-03-23T13:50:52;24.80;37.30
44982;DHT22;30716;41.740;-70.400;2023-03-23T13:53:29;24.80;37.30
44982;DHT22;30716;41.740;-70.400;2023-03-23T13:58:50;24.80;37.40
44982;DHT22;30716;41.740;-70.400;2023-03-23T14:01:41;24.80;37.40
44982;DHT22;30716;41.740;-70.400;2023-03-23T14:04:17;24.70;37.40
44982;DHT22;30716;41.740;-70.400;2023-03-23T14:06:46;24.70;37.40
44982;DHT22;30716;41.740;-70.400;2023-03-23T14:09:30;24.70;37.40
44982;DHT22;30716;41.740;-70.400;2023-03-23T14:12:03;24.70;37.30
44982;DHT22;30716;41.740;-70.400;2023-03-23T14:14:46;24.70;37.30
44982;DHT22;30716;41.740;-70.400;2023-03-23T14:17:26;24.70;37.30
44982;DHT22;30716;41.740;-70.400;2023-03-23T14:19:55;24.70;37.40
44982;DHT22;30716;41.740;-70.400;2023-03-23T14:22:27;24.70;37.40
44982;DHT22;30716;41.740;-70.400;2023-03-23T14:25:03;24.70;37.50
44982;DHT22;30716;41.740;-70.400;2023-03-23T14:27:36;24.70;37.40
44982;DHT22;30716;41.740;-70.400;2023-03-23T14:30:12;24.60;37.50
44982;DHT22;30716;41.740;-70.400;2023-03-23T14:32:39;24.70;37.40
44982;DHT22;30716;41.740;-70.400;2023-03-23T14:35:29;24.70;37.40
44982;DHT22;30716;41.740;-70.400;2023-03-23T14:37:56;24.70;37.50
44982;DHT22;30716;41.740;-70.400;2023-03-23T14:40:26;24.60;37.50
44982;DHT22;30716;41.740;-70.400;2023-03-23T14:42:54;24.60;37.50
44982;DHT22;30716;41.740;-70.400;2023-03-23T14:45:22;24.70;37.50
44982;DHT22;30716;41.740;-70.400;2023-03-23T14:47:53;24.70;37.50
44982;DHT22;30716;41.740;-70.400;2023-03-23T14:50:30;24.70;37.50
44982;DHT22;30716;41.740;-70.400;2023-03-23T14:55:36;24.70;37.50
44982;DHT22;30716;41.740;-70.400;2023-03-23T14:58:07;24.60;37.60
44982;DHT22;30716;41.740;-70.400;2023-03-23T15:03:22;24.60;37.60
44982;DHT22;30716;41.740;-70.400;2023-03-23T15:05:56;24.60;37.60
44982;DHT22;30716;41.740;-70.400;2023-03-23T15:08:29;24.60;37.70
44982;DHT22;30716;41.740;-70.400;2023-03-23T15:11:29;24.60;37.70
44982;DHT22;30716;41.740;-70.400;2023-03-23T15:14:00;24.60;37.60
44982;DHT22;30716;41.740;-70.400;2023-03-23T15:16:31;24.60;37.60
44982;DHT22;30716;41.740;-70.400;2023-03-23T15:19:10;24.60;37.70
44982;DHT22;30716;41.740;-70.400;2023-03-23T15:22:04;24.60;37.90
44982;DHT22;30716;41.740;-70.400;2023-03-23T15:24:38;24.60;37.80
44982;DHT22;30716;41.740;-70.400;2023-03-23T15:27:15;24.60;37.70
44982;DHT22;30716;41.740;-70.400;2023-03-23T15:29:54;24.50;37.40
44982;DHT22;30716;41.740;-70.400;2023-03-23T15:32:36;24.60;37.60
44982;DHT22;30716;41.740;-70.400;2023-03-23T15:35:15;24.50;38.50
44982;DHT22;30716;41.740;-70.400;2023-03-23T15:37:58;24.50;37.70
44982;DHT22;30716;41.740;-70.400;2023-03-23T15:40:27;24.60;37.80
44982;DHT22;30716;41.740;-70.400;2023-03-23T15:45:58;24.50;37.60
44982;DHT22;30716;41.740;-70.400;2023-03-23T15:51:28;24.50;37.80
44982;DHT22;30716;41.740;-70.400;2023-03-23T15:53:55;24.50;37.80
44982;DHT22;30716;41.740;-70.400;2023-03-23T15:56:23;24.50;37.80
44982;DHT22;30716;41.740;-70.400;2023-03-23T15:58:51;24.50;37.80
44982;DHT22;30716;41.740;-70.400;2023-03-23T16:01:25;24.50;38.30
44982;DHT22;30716;41.740;-70.400;2023-03-23T16:06:30;24.50;38.00
44982;DHT22;30716;41.740;-70.400;2023-03-23T16:08:58;24.50;37.80
44982;DHT22;30716;41.740;-70.400;2023-03-23T16:11:27;24.50;37.70
44982;DHT22;30716;41.740;-70.400;2023-03-23T16:13:55;24.50;37.90
44982;DHT22;30716;41.740;-70.400;2023-03-23T16:16:26;24.50;38.00
44982;DHT22;30716;41.740;-70.400;2023-03-23T16:18:54;24.50;38.00
44982;DHT22;30716;41.740;-70.400;2023-03-23T16:21:21;24.50;38.00
44982;DHT22;30716;41.740;-70.400;2023-03-23T16:23:47;24.50;37.90
44982;DHT22;30716;41.740;-70.400;2023-03-23T16:26:15;24.50;38.00
44982;DHT22;30716;41.740;-70.400;2023-03-23T16:28:42;24.50;38.10
44982;DHT22;30716;41.740;-70.400;2023-03-23T16:31:09;24.50;38.00
44982;DHT22;30716;41.740;-70.400;2023-03-23T16:33:36;24.40;37.90
44982;DHT22;30716;41.740;-70.400;2023-03-23T16:36:03;24.40;38.00
44982;DHT22;30716;41.740;-70.400;2023-03-23T16:38:30;24.40;37.90
44982;DHT22;30716;41.740;-70.400;2023-03-23T16:40:57;24.50;38.00
44982;DHT22;30716;41.740;-70.400;2023-03-23T16:43:23;24.40;38.00
44982;DHT22;30716;41.740;-70.400;2023-03-23T16:45:55;24.40;38.00
44982;DHT22;30716;41.740;-70.400;2023-03-23T16:48:22;24.40;38.10
44982;DHT22;30716;41.740;-70.400;2023-03-23T16:50:50;24.40;38.10
44982;DHT22;30716;41.740;-70.400;2023-03-23T16:53:17;24.40;37.90
44982;DHT22;30716;41.740;-70.400;2023-03-23T16:55:44;24.40;38.20
44982;DHT22;30716;41.740;-70.400;2023-03-23T16:58:14;24.40;38.10
44982;DHT22;30716;41.740;-70.400;2023-03-23T17:00:41;24.40;38.20
44982;DHT22;30716;41.740;-70.400;2023-03-23T17:03:08;24.40;38.10
44982;DHT22;30716;41.740;-70.400;2023-03-23T17:05:36;24.40;38.20
44982;DHT22;30716;41.740;-70.400;2023-03-23T17:08:04;24.40;38.10
44982;DHT22;30716;41.740;-70.400;2023-03-23T17:10:31;24.40;38.20
44982;DHT22;30716;41.740;-70.400;2023-03-23T17:12:58;24.40;38.10
44982;DHT22;30716;41.740;-70.400;2023-03-23T17:15:25;24.40;38.00
44982;DHT22;30716;41.740;-70.400;2023-03-23T17:17:51;24.40;38.20
44982;DHT22;30716;41.740;-70.400;2023-03-23T17:20:19;24.40;38.00
44982;DHT22;30716;41.740;-70.400;2023-03-23T17:22:46;24.40;38.20